Time;durP1;ratioP1;P1;durP2;ratioP2;P2;SDS_P1;SDS_P2;PMS_P1;PMS_P2;Temp;Humidity;BMP_temperature;BMP_pressure;BME280_temperature;BME280_humidity;BME280_pressure;Samples;Min_cycle;Max_cycle;Signal;HPM_P1;HPM_P2
2023/11/30 05:02:07;;;;;;;;;;;-1.10;97.30;;;;;;5260356;23;20405;-88
2023/11/30 05:04:33;;;;;;;;;;;-1.20;97.30;;;;;;4941343;29;19911;-86
2023/11/30 05:06:58;;;;;;;;;;;-1.20;97.30;;;;;;4937819;29;19907;-87
2023/11/30 05:09:24;;;;;;;;;;;-1.20;97.30;;;;;;4940578;29;19938;-87
2023/11/30 05:11:49;;;;;;;;;;;-1.30;97.30;;;;;;4939116;29;19914;-87
2023/11/30 05:14:15;;;;;;;;;;;-1.30;97.30;;;;;;4921870;29;20338;-88
2023/11/30 05:16:40;;;;;;;;;;;-1.30;97.30;;;;;;4923178;29;20327;-88
2023/11/30 05:19:05;;;;;;;;;;;-1.30;97.30;;;;;;4937732;29;20039;-86
2023/11/30 05:21:31;;;;;;;;;;;-1.30;97.30;;;;;;4937265;29;19946;-86
2023/11/30 05:23:56;;;;;;;;;;;-1.30;97.30;;;;;;4923169;29;19907;-85
2023/11/30 05:26:22;;;;;;;;;;;-1.30;97.30;;;;;;4936076;29;19907;-82
2023/11/30 05:28:47;;;;;;;;;;;-1.30;97.30;;;;;;4937393;29;19915;-86
2023/11/30 05:31:12;;;;;;;;;;;-1.30;97.30;;;;;;4922328;29;19907;-85
2023/11/30 05:33:39;;;;;;;;;;;-1.30;97.30;;;;;;4921435;29;20001;-86
2023/11/30 05:36:04;;;;;;;;;;;-1.30;97.30;;;;;;4941302;29;20394;-86
2023/11/30 05:38:30;;;;;;;;;;;-1.30;97.30;;;;;;4937667;29;19913;-87
2023/11/30 05:40:56;;;;;;;;;;;-1.30;97.30;;;;;;4937146;29;19906;-87
2023/11/30 05:43:21;;;;;;;;;;;-1.30;97.30;;;;;;4941227;29;19914;-89
2023/11/30 05:45:46;;;;;;;;;;;-1.30;97.30;;;;;;4938952;29;19993;-86
2023/11/30 05:48:12;;;;;;;;;;;-1.30;97.30;;;;;;4936492;29;19977;-86
2023/11/30 05:50:37;;;;;;;;;;;-1.40;97.30;;;;;;4938708;29;19918;-86
2023/11/30 05:53:04;;;;;;;;;;;-1.30;97.30;;;;;;4939083;29;19907;-86
2023/11/30 05:55:30;;;;;;;;;;;-1.40;97.30;;;;;;4936440;29;20315;-86
2023/11/30 05:57:55;;;;;;;;;;;-1.40;97.30;;;;;;4935846;29;19962;-86
2023/11/30 06:00:21;;;;;;;;;;;-1.40;97.30;;;;;;4936076;29;19914;-87
2023/11/30 06:02:47;;;;;;;;;;;-1.40;97.30;;;;;;4965269;23;19959;-87
2023/11/30 06:05:12;;;;;;;;;;;-1.40;97.30;;;;;;4942398;29;20310;-89
2023/11/30 06:07:38;;;;;;;;;;;-1.40;97.30;;;;;;4947898;29;19906;-85
2023/11/30 06:10:04;;;;;;;;;;;-1.40;97.30;;;;;;4946890;29;19914;-86
2023/11/30 06:12:30;;;;;;;;;;;-1.40;97.30;;;;;;4946335;29;20374;-86
2023/11/30 06:14:55;;;;;;;;;;;-1.40;97.30;;;;;;4944324;29;20001;-87
2023/11/30 06:17:20;;;;;;;;;;;-1.40;97.30;;;;;;4946959;29;19906;-85
2023/11/30 06:19:46;;;;;;;;;;;-1.40;97.30;;;;;;4951871;29;19929;-85
2023/11/30 06:22:12;;;;;;;;;;;-1.60;97.30;;;;;;4959622;29;20416;-86
2023/11/30 06:24:38;;;;;;;;;;;-1.70;97.30;;;;;;4959609;29;19895;-90
2023/11/30 06:27:04;;;;;;;;;;;-1.70;97.30;;;;;;4952447;29;19929;-85
2023/11/30 06:29:29;;;;;;;;;;;-1.70;97.30;;;;;;4949164;29;19917;-88
2023/11/30 06:31:59;;;;;;;;;;;-1.80;97.30;;;;;;4959627;29;19949;-88
2023/11/30 06:34:25;;;;;;;;;;;-1.80;97.30;;;;;;4955153;29;19911;-88
2023/11/30 06:36:50;;;;;;;;;;;-1.80;97.30;;;;;;4948018;29;19953;-88
2023/11/30 06:39:15;;;;;;;;;;;-1.80;97.30;;;;;;4950864;29;19911;-87
2023/11/30 06:41:41;;;;;;;;;;;-1.80;97.30;;;;;;4945942;29;19933;-84
2023/11/30 06:44:06;;;;;;;;;;;-1.80;97.30;;;;;;4957663;28;19990;-90
2023/11/30 06:46:32;;;;;;;;;;;-1.70;97.30;;;;;;4939808;29;20417;-87
2023/11/30 06:48:57;;;;;;;;;;;-1.70;97.30;;;;;;4951637;29;19914;-90
2023/11/30 06:51:22;;;;;;;;;;;-1.70;97.30;;;;;;4955697;29;19919;-86
2023/11/30 06:53:48;;;;;;;;;;;-1.70;97.30;;;;;;4954265;29;19906;-85
2023/11/30 06:56:13;;;;;;;;;;;-1.70;97.30;;;;;;4950380;28;19962;-87
2023/11/30 06:58:39;;;;;;;;;;;-1.80;97.30;;;;;;4924304;29;19960;-86
2023/11/30 07:01:05;;;;;;;;;;;-1.90;97.30;;;;;;4949024;29;19911;-84
2023/11/30 07:03:30;;;;;;;;;;;-1.90;97.30;;;;;;4951813;29;19957;-85
2023/11/30 07:05:56;;;;;;;;;;;-2.00;97.30;;;;;;4945815;28;20387;-86
2023/11/30 07:08:22;;;;;;;;;;;-2.00;97.30;;;;;;4940246;29;19954;-88
2023/11/30 07:10:47;;;;;;;;;;;-2.10;97.30;;;;;;4943345;29;20326;-86
2023/11/30 07:13:12;;;;;;;;;;;-2.10;97.30;;;;;;4951524;29;19914;-86
2023/11/30 07:15:38;;;;;;;;;;;-2.10;97.30;;;;;;4945571;29;19918;-88
2023/11/30 07:18:03;;;;;;;;;;;-2.10;97.30;;;;;;4942021;29;19906;-86
2023/11/30 07:20:29;;;;;;;;;;;-2.10;97.30;;;;;;4967527;28;19962;-86
2023/11/30 07:22:54;;;;;;;;;;;-2.10;97.30;;;;;;4955245;29;19913;-88
2023/11/30 07:25:20;;;;;;;;;;;-2.10;97.30;;;;;;4939469;29;19914;-88
2023/11/30 07:27:45;;;;;;;;;;;-2.20;97.30;;;;;;4945054;29;19907;-85
2023/11/30 07:30:11;;;;;;;;;;;-2.10;97.30;;;;;;4945018;29;20382;-88
2023/11/30 07:32:37;;;;;;;;;;;-2.10;97.30;;;;;;4964982;28;20370;-87
2023/11/30 07:35:04;;;;;;;;;;;-2.10;97.30;;;;;;4953535;29;19906;-86
2023/11/30 07:37:30;;;;;;;;;;;-2.00;97.30;;;;;;4928843;29;19906;-86
2023/11/30 07:39:56;;;;;;;;;;;-1.90;97.30;;;;;;4942655;29;19997;-85
2023/11/30 07:42:21;;;;;;;;;;;-1.90;97.30;;;;;;4940280;29;19972;-88
2023/11/30 07:44:47;;;;;;;;;;;-1.90;97.30;;;;;;4951008;28;19907;-86
2023/11/30 07:47:12;;;;;;;;;;;-1.90;97.30;;;;;;4941708;29;19946;-86
2023/11/30 07:49:38;;;;;;;;;;;-1.90;97.30;;;;;;4938576;29;19925;-87
2023/11/30 07:52:03;;;;;;;;;;;-1.90;97.30;;;;;;4942805;29;19911;-86
2023/11/30 07:54:29;;;;;;;;;;;-1.90;97.30;;;;;;4925846;29;19906;-87
2023/11/30 07:56:54;;;;;;;;;;;-1.80;97.30;;;;;;4949498;29;19914;-87
2023/11/30 07:59:20;;;;;;;;;;;-1.80;97.30;;;;;;4945026;29;19967;-88
2023/11/30 08:01:46;;;;;;;;;;;-1.70;97.30;;;;;;4942936;29;19915;-86
2023/11/30 08:04:11;;;;;;;;;;;-1.70;97.30;;;;;;4945993;29;19913;-87
2023/11/30 08:06:37;;;;;;;;;;;-1.60;97.30;;;;;;4952791;29;20310;-86
2023/11/30 08:09:03;;;;;;;;;;;-1.60;97.30;;;;;;4949806;28;20369;-86
2023/11/30 08:11:28;;;;;;;;;;;-1.50;97.30;;;;;;4927236;29;19914;-90
2023/11/30 08:13:54;;;;;;;;;;;-1.50;97.30;;;;;;4942788;29;19910;-86
2023/11/30 08:16:19;;;;;;;;;;;-1.50;97.30;;;;;;4937989;29;19910;-85
2023/11/30 08:18:45;;;;;;;;;;;-1.50;97.30;;;;;;4945612;29;19910;-85
2023/11/30 08:21:10;;;;;;;;;;;-1.40;97.30;;;;;;4944624;28;19953;-86
2023/11/30 08:23:37;;;;;;;;;;;-1.40;97.30;;;;;;4924558;29;20009;-85
2023/11/30 08:26:03;;;;;;;;;;;-1.40;97.30;;;;;;4937200;28;19918;-85
2023/11/30 08:28:29;;;;;;;;;;;-1.30;97.30;;;;;;4941247;29;19911;-86
2023/11/30 08:30:55;;;;;;;;;;;-1.40;97.30;;;;;;4949526;29;20033;-87
2023/11/30 08:33:21;;;;;;;;;;;-1.30;97.30;;;;;;4949443;29;19907;-87
2023/11/30 08:35:46;;;;;;;;;;;-1.30;97.30;;;;;;4929327;29;19910;-86
2023/11/30 08:38:12;;;;;;;;;;;-1.30;97.30;;;;;;4939510;28;19919;-86
2023/11/30 08:40:38;;;;;;;;;;;-1.20;97.30;;;;;;4929479;29;19923;-89
2023/11/30 08:43:03;;;;;;;;;;;-1.10;97.30;;;;;;4951071;28;19933;-85
2023/11/30 08:45:29;;;;;;;;;;;-1.00;97.30;;;;;;4936696;29;19938;-85
2023/11/30 08:47:55;;;;;;;;;;;-0.90;97.30;;;;;;4939442;29;19947;-86
2023/11/30 08:50:21;;;;;;;;;;;-0.80;97.30;;;;;;4933942;29;19915;-86
2023/11/30 08:52:46;;;;;;;;;;;-0.70;97.30;;;;;;4933621;29;19919;-86
2023/11/30 08:55:11;;;;;;;;;;;-0.60;97.30;;;;;;4914821;29;19925;-86
2023/11/30 08:57:39;;;;;;;;;;;-0.40;97.30;;;;;;4950239;28;19949;-86
2023/11/30 09:00:06;;;;;;;;;;;-0.30;97.30;;;;;;4934492;29;19914;-85
2023/11/30 09:02:32;;;;;;;;;;;-0.20;97.30;;;;;;4965625;28;19965;-86
2023/11/30 09:04:58;;;;;;;;;;;0.00;97.30;;;;;;4962217;28;19910;-85
2023/11/30 09:07:23;;;;;;;;;;;0.10;97.30;;;;;;4938774;29;19965;-86
2023/11/30 09:09:48;;;;;;;;;;;0.20;97.30;;;;;;4923394;29;19911;-85
2023/11/30 09:12:14;;;;;;;;;;;0.30;97.30;;;;;;4937556;29;19911;-85
2023/11/30 09:14:39;;;;;;;;;;;0.40;97.30;;;;;;4934580;29;19911;-86
2023/11/30 09:17:05;;;;;;;;;;;0.50;97.30;;;;;;4948087;29;19962;-86
2023/11/30 09:19:31;;;;;;;;;;;0.70;97.30;;;;;;4957630;28;19910;-84
2023/11/30 09:21:57;;;;;;;;;;;0.70;97.30;;;;;;4946461;29;19913;-85
2023/11/30 09:24:22;;;;;;;;;;;0.70;97.30;;;;;;4948739;29;19906;-87
2023/11/30 09:26:51;;;;;;;;;;;0.70;97.30;;;;;;4944783;29;19961;-84
2023/11/30 09:29:17;;;;;;;;;;;0.90;97.30;;;;;;4929533;29;19919;-84
2023/11/30 09:31:42;;;;;;;;;;;1.10;97.30;;;;;;4943075;28;19911;-86
2023/11/30 09:34:09;;;;;;;;;;;1.20;97.30;;;;;;4942171;29;19907;-85
2023/11/30 09:36:34;;;;;;;;;;;1.40;97.30;;;;;;4924119;29;20386;-82
2023/11/30 09:38:59;;;;;;;;;;;1.40;97.30;;;;;;4955404;28;19918;-85
2023/11/30 09:41:25;;;;;;;;;;;1.40;97.30;;;;;;4948392;29;19957;-86
2023/11/30 09:43:50;;;;;;;;;;;1.50;97.30;;;;;;4945383;29;19914;-83
2023/11/30 09:46:16;;;;;;;;;;;1.50;97.30;;;;;;4947210;29;19917;-85
2023/11/30 09:48:42;;;;;;;;;;;1.50;97.30;;;;;;4944947;29;19997;-86
2023/11/30 09:51:10;;;;;;;;;;;1.70;97.30;;;;;;4948383;29;19919;-85
2023/11/30 09:53:36;;;;;;;;;;;1.90;97.30;;;;;;4948243;29;20270;-85
2023/11/30 09:56:03;;;;;;;;;;;2.00;97.30;;;;;;4962536;28;19925;-85
2023/11/30 09:58:28;;;;;;;;;;;2.20;97.30;;;;;;4943910;29;19922;-83
2023/11/30 10:00:54;;;;;;;;;;;2.20;97.30;;;;;;4959670;28;19914;-86
2023/11/30 10:03:29;;;;;;;;;;;2.20;97.30;;;;;;4944215;29;20437;-85
2023/11/30 10:05:55;;;;;;;;;;;2.20;97.30;;;;;;4945599;29;19918;-84
2023/11/30 10:08:21;;;;;;;;;;;2.30;97.30;;;;;;4942583;29;19915;-83
2023/11/30 10:10:47;;;;;;;;;;;2.40;97.30;;;;;;4928823;29;19918;-85
2023/11/30 10:13:13;;;;;;;;;;;2.40;97.30;;;;;;4943018;29;20073;-86
2023/11/30 10:15:39;;;;;;;;;;;2.60;97.30;;;;;;4945804;29;19921;-84
2023/11/30 10:18:04;;;;;;;;;;;2.70;97.30;;;;;;4942825;29;20310;-86
2023/11/30 10:20:30;;;;;;;;;;;2.80;97.30;;;;;;4943829;29;19914;-85
2023/11/30 10:22:55;;;;;;;;;;;2.80;97.30;;;;;;4943880;29;19915;-86
2023/11/30 10:25:21;;;;;;;;;;;2.90;97.30;;;;;;4945670;29;19906;-87
2023/11/30 10:27:49;;;;;;;;;;;3.00;97.30;;;;;;4943532;29;19907;-85
2023/11/30 10:30:15;;;;;;;;;;;3.00;97.30;;;;;;4942217;29;20365;-85
2023/11/30 10:32:41;;;;;;;;;;;2.90;97.30;;;;;;4943462;29;19915;-84
2023/11/30 10:35:11;;;;;;;;;;;2.90;97.30;;;;;;4943456;29;20822;-86
2023/11/30 10:37:40;;;;;;;;;;;2.80;97.30;;;;;;4944058;29;19914;-86
2023/11/30 10:40:10;;;;;;;;;;;2.70;97.30;;;;;;4926641;29;20385;-86
2023/11/30 10:42:35;;;;;;;;;;;2.70;97.30;;;;;;4943912;28;20033;-86
2023/11/30 10:45:02;;;;;;;;;;;2.60;97.30;;;;;;4942337;29;20004;-85
2023/11/30 10:47:28;;;;;;;;;;;2.60;97.30;;;;;;4943803;29;19914;-85
2023/11/30 10:49:54;;;;;;;;;;;2.50;97.30;;;;;;4960901;28;20345;-85
2023/11/30 10:52:20;;;;;;;;;;;2.50;97.30;;;;;;4926420;29;19915;-85
2023/11/30 10:54:49;;;;;;;;;;;2.40;97.30;;;;;;4962079;28;19965;-85
2023/11/30 10:57:15;;;;;;;;;;;2.30;97.30;;;;;;4945094;29;20606;-85
2023/11/30 10:59:48;;;;;;;;;;;2.20;97.30;;;;;;4944355;29;19919;-81
2023/11/30 11:02:14;;;;;;;;;;;2.20;97.30;;;;;;4944650;29;19933;-84
2023/11/30 11:04:40;;;;;;;;;;;2.10;97.30;;;;;;4945632;29;19922;-83
2023/11/30 11:07:06;;;;;;;;;;;2.10;97.30;;;;;;4954295;28;19969;-88
2023/11/30 11:09:40;;;;;;;;;;;2.00;97.30;;;;;;4947076;28;19981;-86
2023/11/30 11:12:06;;;;;;;;;;;2.10;97.30;;;;;;4944987;29;19953;-86
2023/11/30 11:14:32;;;;;;;;;;;2.00;97.30;;;;;;4945265;29;19953;-85
2023/11/30 11:17:07;;;;;;;;;;;2.00;97.30;;;;;;4942806;29;19926;-82
2023/11/30 11:19:33;;;;;;;;;;;1.90;97.30;;;;;;4926706;29;20419;-84
2023/11/30 11:21:59;;;;;;;;;;;1.80;97.30;;;;;;4959186;28;19915;-83
2023/11/30 11:24:25;;;;;;;;;;;1.80;97.30;;;;;;4944950;29;19921;-86
2023/11/30 11:26:55;;;;;;;;;;;1.70;97.30;;;;;;4942623;29;19914;-83
2023/11/30 11:29:22;;;;;;;;;;;1.70;97.30;;;;;;4942466;29;19918;-86
2023/11/30 11:31:47;;;;;;;;;;;1.70;97.30;;;;;;4945028;29;19914;-86
2023/11/30 11:34:14;;;;;;;;;;;1.80;97.30;;;;;;4942608;29;19974;-85
2023/11/30 11:36:42;;;;;;;;;;;1.80;97.30;;;;;;4926253;29;19910;-85
2023/11/30 11:39:10;;;;;;;;;;;1.80;97.30;;;;;;4941408;29;20202;-85
2023/11/30 11:41:35;;;;;;;;;;;1.80;97.30;;;;;;4927653;29;19921;-85
2023/11/30 11:44:01;;;;;;;;;;;1.70;97.30;;;;;;4943526;29;19914;-86
2023/11/30 11:46:27;;;;;;;;;;;1.80;97.30;;;;;;4944075;29;19914;-86
2023/11/30 11:48:53;;;;;;;;;;;1.80;97.30;;;;;;4945112;29;19939;-85
2023/11/30 11:51:18;;;;;;;;;;;1.80;97.30;;;;;;4943060;29;19915;-87
2023/11/30 11:53:43;;;;;;;;;;;1.80;97.30;;;;;;4943111;29;19918;-83
2023/11/30 11:56:10;;;;;;;;;;;1.70;97.30;;;;;;4943482;28;20122;-85
2023/11/30 11:58:36;;;;;;;;;;;1.70;97.30;;;;;;4927565;29;19910;-87
2023/11/30 12:01:02;;;;;;;;;;;1.70;97.30;;;;;;4943489;29;19961;-83
2023/11/30 12:03:27;;;;;;;;;;;1.70;97.30;;;;;;4943229;29;19985;-85
2023/11/30 12:05:53;;;;;;;;;;;1.70;97.30;;;;;;4957907;28;19919;-86
2023/11/30 12:08:29;;;;;;;;;;;1.70;97.30;;;;;;4941651;29;19911;-86
2023/11/30 12:10:55;;;;;;;;;;;1.70;97.30;;;;;;4924622;29;20302;-87
2023/11/30 12:13:22;;;;;;;;;;;1.70;97.30;;;;;;4927884;29;19906;-84
2023/11/30 12:15:47;;;;;;;;;;;1.70;97.30;;;;;;4943095;29;19995;-86
2023/11/30 12:18:13;;;;;;;;;;;1.70;97.30;;;;;;4942845;29;19918;-88
2023/11/30 12:20:39;;;;;;;;;;;1.70;97.30;;;;;;4927161;29;19918;-87
2023/11/30 12:23:04;;;;;;;;;;;1.70;97.30;;;;;;4957252;28;19924;-87
2023/11/30 12:25:30;;;;;;;;;;;1.70;97.30;;;;;;4944981;29;19914;-86
2023/11/30 12:27:55;;;;;;;;;;;1.70;97.30;;;;;;4941083;29;19974;-87
2023/11/30 12:30:21;;;;;;;;;;;1.70;97.30;;;;;;4943577;29;20323;-87
2023/11/30 12:32:47;;;;;;;;;;;1.70;97.30;;;;;;4944155;29;20293;-84
2023/11/30 12:35:12;;;;;;;;;;;1.70;97.30;;;;;;4942581;29;19921;-87
2023/11/30 12:37:38;;;;;;;;;;;1.70;97.30;;;;;;4958539;28;19911;-84
2023/11/30 12:40:04;;;;;;;;;;;1.70;97.30;;;;;;4943981;29;19915;-87
2023/11/30 12:42:29;;;;;;;;;;;1.70;97.30;;;;;;4944321;29;19961;-83
2023/11/30 12:44:56;;;;;;;;;;;1.70;97.30;;;;;;4941295;29;19918;-85
2023/11/30 12:47:21;;;;;;;;;;;1.70;97.30;;;;;;4939604;29;20073;-86
2023/11/30 12:49:47;;;;;;;;;;;1.70;97.30;;;;;;4926756;29;19918;-86
2023/11/30 12:52:13;;;;;;;;;;;1.70;97.30;;;;;;4940759;29;19914;-89
2023/11/30 12:54:38;;;;;;;;;;;1.70;97.30;;;;;;4926332;29;19906;-88
2023/11/30 12:57:04;;;;;;;;;;;1.70;97.30;;;;;;4940454;29;20496;-87
2023/11/30 12:59:29;;;;;;;;;;;1.70;97.30;;;;;;4940506;29;19964;-84
2023/11/30 13:01:56;;;;;;;;;;;1.70;97.30;;;;;;4941835;29;19914;-83
2023/11/30 13:04:22;;;;;;;;;;;1.70;97.30;;;;;;4943720;29;19911;-87
2023/11/30 13:06:47;;;;;;;;;;;1.70;97.30;;;;;;4948424;28;19925;-85
2023/11/30 13:09:16;;;;;;;;;;;1.70;97.30;;;;;;4943560;29;19919;-86
2023/11/30 13:11:42;;;;;;;;;;;1.70;97.30;;;;;;4946566;29;19941;-86
2023/11/30 13:14:07;;;;;;;;;;;1.70;97.30;;;;;;4945884;29;20205;-85
2023/11/30 13:16:33;;;;;;;;;;;1.60;97.30;;;;;;4929594;29;19921;-86
2023/11/30 13:18:59;;;;;;;;;;;1.50;97.30;;;;;;4944908;29;19922;-85
2023/11/30 13:21:24;;;;;;;;;;;1.50;97.30;;;;;;4947345;29;20405;-85
2023/11/30 13:23:49;;;;;;;;;;;1.50;97.30;;;;;;4928927;29;20378;-80
2023/11/30 13:26:15;;;;;;;;;;;1.50;97.30;;;;;;4947904;29;19946;-84
2023/11/30 13:28:41;;;;;;;;;;;1.40;97.30;;;;;;4944746;28;19924;-83
2023/11/30 13:31:07;;;;;;;;;;;1.40;97.30;;;;;;4947274;29;19946;-85
2023/11/30 13:33:33;;;;;;;;;;;1.40;97.30;;;;;;4946911;29;19925;-82
2023/11/30 13:35:58;;;;;;;;;;;1.40;97.30;;;;;;4942669;29;20659;-86
2023/11/30 13:38:24;;;;;;;;;;;1.40;97.30;;;;;;4945483;29;19990;-84
2023/11/30 13:40:49;;;;;;;;;;;1.40;97.30;;;;;;4929251;29;19918;-82
2023/11/30 13:43:15;;;;;;;;;;;1.40;97.30;;;;;;4943307;29;20408;-85
2023/11/30 13:45:41;;;;;;;;;;;1.30;97.30;;;;;;4937658;29;19918;-82
2023/11/30 13:48:06;;;;;;;;;;;1.30;97.30;;;;;;4942255;29;20301;-88
2023/11/30 13:50:31;;;;;;;;;;;1.40;97.30;;;;;;4926505;29;19922;-88
2023/11/30 13:52:58;;;;;;;;;;;1.40;97.30;;;;;;4942938;29;20016;-88
2023/11/30 13:55:24;;;;;;;;;;;1.30;97.30;;;;;;4926452;29;20290;-85
2023/11/30 13:57:49;;;;;;;;;;;1.30;97.30;;;;;;4959115;28;19911;-86
2023/11/30 14:00:15;;;;;;;;;;;1.30;97.30;;;;;;4940959;29;19953;-83
2023/11/30 14:02:40;;;;;;;;;;;1.30;97.30;;;;;;4944129;29;19929;-85
2023/11/30 14:05:06;;;;;;;;;;;1.20;97.30;;;;;;4942523;29;20033;-85
2023/11/30 14:07:33;;;;;;;;;;;1.20;97.30;;;;;;4926426;29;20302;-85
2023/11/30 14:09:58;;;;;;;;;;;1.30;97.30;;;;;;4943427;29;19918;-86
2023/11/30 14:12:24;;;;;;;;;;;1.30;97.30;;;;;;4944405;29;20374;-85
2023/11/30 14:14:50;;;;;;;;;;;1.20;97.30;;;;;;4940326;29;19915;-86
2023/11/30 14:17:16;;;;;;;;;;;1.20;97.30;;;;;;4941835;28;19922;-84
2023/11/30 14:19:41;;;;;;;;;;;1.20;97.30;;;;;;4944820;29;20314;-85
2023/11/30 14:22:08;;;;;;;;;;;1.10;97.30;;;;;;4941509;29;19907;-85
2023/11/30 14:24:34;;;;;;;;;;;1.10;97.30;;;;;;4959119;28;19918;-84
2023/11/30 14:26:59;;;;;;;;;;;1.10;97.30;;;;;;4944130;29;20000;-84
2023/11/30 14:29:25;;;;;;;;;;;1.10;97.30;;;;;;4942576;29;19922;-85
2023/11/30 14:31:50;;;;;;;;;;;1.20;97.30;;;;;;4927837;29;20290;-84
2023/11/30 14:34:16;;;;;;;;;;;1.20;97.30;;;;;;4939914;29;19949;-82
2023/11/30 14:36:41;;;;;;;;;;;1.20;97.30;;;;;;4958231;28;19982;-87
2023/11/30 14:39:07;;;;;;;;;;;1.20;97.30;;;;;;4942136;29;19917;-86
2023/11/30 14:41:32;;;;;;;;;;;1.20;97.30;;;;;;4928776;29;19906;-86
2023/11/30 14:43:58;;;;;;;;;;;1.20;97.30;;;;;;4943516;29;19918;-84
2023/11/30 14:46:23;;;;;;;;;;;1.10;97.30;;;;;;4941122;29;19970;-83
2023/11/30 14:48:49;;;;;;;;;;;1.10;97.30;;;;;;4940101;29;19951;-85
2023/11/30 14:51:15;;;;;;;;;;;1.10;97.30;;;;;;4940988;29;20416;-85
2023/11/30 14:53:40;;;;;;;;;;;1.10;97.30;;;;;;4940380;29;19918;-85
2023/11/30 14:56:07;;;;;;;;;;;1.10;97.30;;;;;;4944977;29;20290;-85
2023/11/30 14:58:33;;;;;;;;;;;1.10;97.30;;;;;;4944010;29;19982;-85
2023/11/30 15:00:58;;;;;;;;;;;1.10;97.30;;;;;;4941100;29;20012;-81
2023/11/30 15:03:24;;;;;;;;;;;1.10;97.30;;;;;;4958808;28;20561;-83
2023/11/30 15:05:49;;;;;;;;;;;1.00;97.30;;;;;;4944646;29;19957;-85
2023/11/30 15:08:15;;;;;;;;;;;1.00;97.30;;;;;;4941624;29;20417;-84
2023/11/30 15:10:43;;;;;;;;;;;1.00;97.30;;;;;;4941092;29;20041;-84
2023/11/30 15:13:08;;;;;;;;;;;1.00;97.30;;;;;;4940606;29;19915;-85
2023/11/30 15:15:34;;;;;;;;;;;0.90;97.30;;;;;;4944239;29;19925;-85
2023/11/30 15:17:59;;;;;;;;;;;0.90;97.30;;;;;;4940817;29;20010;-85
2023/11/30 15:20:24;;;;;;;;;;;0.90;97.30;;;;;;4944494;29;19918;-83
2023/11/30 15:22:50;;;;;;;;;;;0.90;97.30;;;;;;4959144;28;19945;-83
2023/11/30 15:25:19;;;;;;;;;;;0.90;97.30;;;;;;4941550;29;20005;-84
2023/11/30 15:27:45;;;;;;;;;;;0.90;97.30;;;;;;4942327;29;20417;-84
2023/11/30 15:30:11;;;;;;;;;;;0.90;97.30;;;;;;4941280;28;19949;-83
2023/11/30 15:32:36;;;;;;;;;;;0.90;97.30;;;;;;4942317;29;19964;-84
2023/11/30 15:35:02;;;;;;;;;;;0.80;97.30;;;;;;4944200;29;20343;-85
2023/11/30 15:37:28;;;;;;;;;;;0.80;97.30;;;;;;4941905;29;20577;-85
2023/11/30 15:39:54;;;;;;;;;;;0.80;97.30;;;;;;4941237;29;19914;-83
2023/11/30 15:42:19;;;;;;;;;;;0.80;97.30;;;;;;4944578;29;19973;-85
2023/11/30 15:44:46;;;;;;;;;;;0.80;97.30;;;;;;4941702;29;19942;-85
2023/11/30 15:47:11;;;;;;;;;;;0.70;97.30;;;;;;4940920;29;20362;-83
2023/11/30 15:49:37;;;;;;;;;;;0.70;97.30;;;;;;4943270;29;19921;-83
2023/11/30 15:52:02;;;;;;;;;;;0.70;97.30;;;;;;4925513;29;19907;-84
2023/11/30 15:54:28;;;;;;;;;;;0.60;97.30;;;;;;4942295;29;19922;-84
2023/11/30 15:56:54;;;;;;;;;;;0.60;97.30;;;;;;4941092;29;20362;-84
2023/11/30 15:59:19;;;;;;;;;;;0.60;97.30;;;;;;4941965;29;20409;-85
2023/11/30 16:01:45;;;;;;;;;;;0.70;97.30;;;;;;4944093;29;19914;-84
2023/11/30 16:04:10;;;;;;;;;;;0.60;97.30;;;;;;4940631;29;19914;-83
2023/11/30 16:06:36;;;;;;;;;;;0.60;97.30;;;;;;4943266;29;19906;-86
2023/11/30 16:09:02;;;;;;;;;;;0.60;97.30;;;;;;4940668;29;20207;-85
2023/11/30 16:11:28;;;;;;;;;;;0.60;97.30;;;;;;4939228;29;19925;-86
2023/11/30 16:13:53;;;;;;;;;;;0.90;97.30;;;;;;4941737;29;19911;-85
2023/11/30 16:16:19;;;;;;;;;;;1.00;97.30;;;;;;4923189;29;20607;-85
2023/11/30 16:18:44;;;;;;;;;;;0.90;97.30;;;;;;4939716;29;19918;-85
2023/11/30 16:21:15;;;;;;;;;;;0.80;97.30;;;;;;4936947;29;19919;-85
2023/11/30 16:23:41;;;;;;;;;;;0.70;97.30;;;;;;4916544;29;19958;-86
2023/11/30 16:26:06;;;;;;;;;;;0.70;97.30;;;;;;4939043;29;19958;-86
2023/11/30 16:28:31;;;;;;;;;;;0.70;97.30;;;;;;4936808;29;19914;-86
2023/11/30 16:30:57;;;;;;;;;;;0.70;97.30;;;;;;4939923;29;19918;-85
2023/11/30 16:33:22;;;;;;;;;;;0.60;97.30;;;;;;4939288;29;19914;-85
2023/11/30 16:35:48;;;;;;;;;;;0.60;97.30;;;;;;4941661;29;19907;-86
2023/11/30 16:38:13;;;;;;;;;;;0.60;97.30;;;;;;4936053;29;20212;-85
2023/11/30 16:40:39;;;;;;;;;;;0.60;97.30;;;;;;4939795;29;20294;-86
2023/11/30 16:43:04;;;;;;;;;;;0.60;97.30;;;;;;4941762;29;19969;-84
2023/11/30 16:45:30;;;;;;;;;;;0.60;97.30;;;;;;4942470;29;20310;-87
2023/11/30 16:47:55;;;;;;;;;;;0.60;97.30;;;;;;4938641;29;19910;-84
2023/11/30 16:50:21;;;;;;;;;;;0.60;97.30;;;;;;4939119;29;19925;-86
2023/11/30 16:52:47;;;;;;;;;;;0.60;97.30;;;;;;4938197;29;19907;-86
2023/11/30 16:55:13;;;;;;;;;;;0.60;97.30;;;;;;4940436;29;20354;-84
2023/11/30 16:57:39;;;;;;;;;;;0.50;97.30;;;;;;4939860;29;19969;-85
2023/11/30 17:00:07;;;;;;;;;;;0.50;97.30;;;;;;4935760;29;20397;-85
2023/11/30 17:02:32;;;;;;;;;;;0.50;97.30;;;;;;4923774;29;19920;-87
2023/11/30 17:04:58;;;;;;;;;;;0.50;97.30;;;;;;4938980;29;19918;-84
2023/11/30 17:07:23;;;;;;;;;;;0.50;97.30;;;;;;4955189;28;20246;-83
2023/11/30 17:09:49;;;;;;;;;;;0.50;97.30;;;;;;4939594;29;20005;-85
2023/11/30 17:12:15;;;;;;;;;;;0.50;97.30;;;;;;4939078;29;19969;-85
2023/11/30 17:14:40;;;;;;;;;;;0.50;97.30;;;;;;4940383;29;19910;-86
2023/11/30 17:17:06;;;;;;;;;;;0.50;97.30;;;;;;4939472;29;19925;-86
2023/11/30 17:19:31;;;;;;;;;;;0.50;97.30;;;;;;4933476;29;19914;-86
2023/11/30 17:21:57;;;;;;;;;;;0.50;97.30;;;;;;4937601;29;19918;-84
2023/11/30 17:24:22;;;;;;;;;;;0.50;97.30;;;;;;4955136;28;20033;-85
2023/11/30 17:26:52;;;;;;;;;;;0.50;97.30;;;;;;4955557;28;19906;-85
2023/11/30 17:29:17;;;;;;;;;;;0.40;97.30;;;;;;4941757;29;19918;-86
2023/11/30 17:31:43;;;;;;;;;;;0.40;97.30;;;;;;4938182;29;20114;-85
2023/11/30 17:34:08;;;;;;;;;;;0.40;97.30;;;;;;4938126;29;19914;-85
2023/11/30 17:36:34;;;;;;;;;;;0.40;97.30;;;;;;4921354;29;19926;-86
2023/11/30 17:38:59;;;;;;;;;;;0.50;97.30;;;;;;4938499;29;19919;-85
2023/11/30 17:41:24;;;;;;;;;;;0.50;97.30;;;;;;4941275;29;20290;-86
2023/11/30 17:43:50;;;;;;;;;;;0.50;97.30;;;;;;4939098;29;19918;-86
2023/11/30 17:46:15;;;;;;;;;;;0.70;97.30;;;;;;4939280;29;20425;-86
2023/11/30 17:48:41;;;;;;;;;;;0.70;97.30;;;;;;4937211;29;19969;-87
2023/11/30 17:51:08;;;;;;;;;;;0.70;97.30;;;;;;4922690;29;20025;-85
2023/11/30 17:53:34;;;;;;;;;;;0.70;97.30;;;;;;4956172;28;19906;-86
2023/11/30 17:55:59;;;;;;;;;;;0.70;97.30;;;;;;4940502;29;19919;-87
2023/11/30 17:58:25;;;;;;;;;;;0.70;97.30;;;;;;4943766;29;20390;-85
2023/11/30 18:00:54;;;;;;;;;;;0.60;97.30;;;;;;4940795;29;20425;-85
2023/11/30 18:03:19;;;;;;;;;;;0.60;97.30;;;;;;4941170;29;21949;-88
2023/11/30 18:05:45;;;;;;;;;;;0.70;97.30;;;;;;4942501;29;19914;-86
2023/11/30 18:08:10;;;;;;;;;;;0.70;97.30;;;;;;4925591;29;19910;-85
2023/11/30 18:10:36;;;;;;;;;;;0.70;97.30;;;;;;4926770;29;19926;-87
2023/11/30 18:13:01;;;;;;;;;;;0.70;97.30;;;;;;4942924;29;19938;-86
2023/11/30 18:15:26;;;;;;;;;;;0.80;97.30;;;;;;4940232;29;19919;-85
2023/11/30 18:17:52;;;;;;;;;;;0.70;97.30;;;;;;4941750;29;19914;-88
2023/11/30 18:20:17;;;;;;;;;;;0.70;97.30;;;;;;4938766;29;20294;-85
2023/11/30 18:22:43;;;;;;;;;;;0.70;97.30;;;;;;4939251;29;19926;-87
2023/11/30 18:25:09;;;;;;;;;;;0.70;97.30;;;;;;4937754;28;19934;-88
2023/11/30 18:27:34;;;;;;;;;;;0.70;97.30;;;;;;4927464;29;19958;-85
2023/11/30 18:30:00;;;;;;;;;;;0.70;97.30;;;;;;4922158;29;20379;-86
2023/11/30 18:32:25;;;;;;;;;;;0.70;97.30;;;;;;4924308;29;19918;-85
2023/11/30 18:34:50;;;;;;;;;;;0.70;97.30;;;;;;4939681;29;19914;-84
2023/11/30 18:37:16;;;;;;;;;;;0.70;97.30;;;;;;4938789;29;19918;-85
2023/11/30 18:39:41;;;;;;;;;;;0.70;97.30;;;;;;4924400;29;20425;-85
2023/11/30 18:42:07;;;;;;;;;;;0.70;97.30;;;;;;4940238;29;19942;-86
2023/11/30 18:44:32;;;;;;;;;;;0.70;97.30;;;;;;4944975;29;20465;-85
2023/11/30 18:46:58;;;;;;;;;;;0.70;97.30;;;;;;4942755;29;19922;-87
2023/11/30 18:49:23;;;;;;;;;;;0.70;97.30;;;;;;4944067;29;19914;-86
2023/11/30 18:51:49;;;;;;;;;;;0.80;97.30;;;;;;4927527;29;19906;-85
2023/11/30 18:54:14;;;;;;;;;;;0.80;97.30;;;;;;4943665;29;19911;-84
2023/11/30 18:56:40;;;;;;;;;;;0.80;97.30;;;;;;4944181;29;19918;-88
2023/11/30 18:59:06;;;;;;;;;;;0.70;97.30;;;;;;4942182;29;20001;-87
2023/11/30 19:01:31;;;;;;;;;;;0.70;97.30;;;;;;4941459;29;20091;-85
2023/11/30 19:03:57;;;;;;;;;;;0.70;97.30;;;;;;4942096;29;19925;-83
2023/11/30 19:06:24;;;;;;;;;;;0.70;97.30;;;;;;4942225;29;19910;-85
2023/11/30 19:08:49;;;;;;;;;;;0.70;97.30;;;;;;4942025;29;19966;-86
2023/11/30 19:11:20;;;;;;;;;;;0.70;97.30;;;;;;4940943;29;19926;-86
2023/11/30 19:13:45;;;;;;;;;;;0.70;97.30;;;;;;4926873;29;20010;-85
2023/11/30 19:16:18;;;;;;;;;;;0.70;97.30;;;;;;4942945;29;20013;-87
2023/11/30 19:18:44;;;;;;;;;;;0.60;97.30;;;;;;4944176;29;19918;-85